Time;durP1;ratioP1;P1;durP2;ratioP2;P2;SDS_P1;SDS_P2;PMS_P1;PMS_P2;Temp;Humidity;BMP_temperature;BMP_pressure;BME280_temperature;BME280_humidity;BME280_pressure;Samples;Min_cycle;Max_cycle;Signal;HPM_P1;HPM_P2
2023/09/27 00:01:24;;;;;;;18.05;16.30;;;16.30;99.90;;;;;;5012431;28;20054;-62
2023/09/27 00:03:50;;;;;;;19.23;17.33;;;16.30;99.90;;;;;;5011490;28;20042;-61
2023/09/27 00:06:16;;;;;;;18.52;16.65;;;16.30;99.90;;;;;;5011979;28;20104;-61
2023/09/27 00:08:43;;;;;;;18.90;16.52;;;16.30;99.90;;;;;;5011572;28;20050;-61
2023/09/27 00:11:09;;;;;;;20.25;17.95;;;16.20;99.90;;;;;;5011891;28;20464;-62
2023/09/27 00:13:35;;;;;;;20.63;18.42;;;16.10;99.90;;;;;;5011536;28;20045;-61
2023/09/27 00:16:01;;;;;;;19.15;17.15;;;16.10;99.90;;;;;;5011702;28;20064;-62
2023/09/27 00:18:28;;;;;;;19.67;17.60;;;16.20;99.90;;;;;;5011356;28;20061;-60
2023/09/27 00:20:54;;;;;;;20.33;17.30;;;16.10;99.90;;;;;;5011762;28;20404;-61
2023/09/27 00:23:20;;;;;;;20.90;17.45;;;16.00;99.90;;;;;;5011171;28;20076;-62
2023/09/27 00:25:46;;;;;;;21.58;18.38;;;15.90;99.90;;;;;;5011724;28;20053;-61
2023/09/27 00:28:13;;;;;;;19.48;17.48;;;15.90;99.90;;;;;;5011366;28;20042;-62
2023/09/27 00:30:39;;;;;;;20.60;18.40;;;15.90;99.90;;;;;;5011780;28;20108;-62
2023/09/27 00:33:05;;;;;;;20.73;18.60;;;15.80;99.90;;;;;;5011675;28;20049;-62
2023/09/27 00:35:31;;;;;;;20.95;18.63;;;15.80;99.90;;;;;;5011611;28;20042;-61
2023/09/27 00:37:58;;;;;;;21.00;18.90;;;15.80;99.90;;;;;;5010680;28;20131;-61
2023/09/27 00:40:25;;;;;;;21.52;19.25;;;15.70;99.90;;;;;;5011538;28;20057;-60
2023/09/27 00:42:54;;;;;;;20.20;18.10;;;15.70;99.90;;;;;;5011072;28;20108;-61
2023/09/27 00:45:21;;;;;;;21.45;18.65;;;15.70;99.90;;;;;;5011221;28;20049;-62
2023/09/27 00:47:50;;;;;;;20.02;17.92;;;15.60;99.90;;;;;;5010734;28;20100;-62
2023/09/27 00:50:17;;;;;;;21.00;18.88;;;15.60;99.90;;;;;;5011306;28;20103;-61
2023/09/27 00:52:45;;;;;;;20.85;18.58;;;15.60;99.90;;;;;;5010573;28;20419;-60
2023/09/27 00:55:13;;;;;;;22.05;19.73;;;15.60;99.90;;;;;;5011102;28;20050;-61
2023/09/27 00:57:40;;;;;;;21.08;17.33;;;15.60;99.90;;;;;;5010665;28;20418;-61
2023/09/27 01:00:10;;;;;;;20.88;18.75;;;15.60;99.90;;;;;;5010989;28;20062;-60
2023/09/27 01:02:37;;;;;;;21.05;18.95;;;15.50;99.90;;;;;;5010697;28;21160;-61
2023/09/27 01:05:08;;;;;;;21.00;18.75;;;15.50;99.90;;;;;;5010644;28;20072;-62
2023/09/27 01:07:35;;;;;;;20.20;17.92;;;15.50;99.90;;;;;;5010770;28;20343;-62
2023/09/27 01:10:01;;;;;;;21.00;18.38;;;15.50;99.90;;;;;;5010843;28;20046;-61
2023/09/27 01:12:27;;;;;;;21.27;18.67;;;15.40;99.90;;;;;;5010289;28;20229;-61
2023/09/27 01:14:53;;;;;;;21.63;19.42;;;15.50;99.90;;;;;;5010642;28;20049;-61
2023/09/27 01:17:20;;;;;;;21.35;18.98;;;15.40;99.90;;;;;;5010075;28;20128;-61
2023/09/27 01:19:46;;;;;;;20.38;18.30;;;15.40;99.90;;;;;;5010646;28;20050;-62
2023/09/27 01:22:12;;;;;;;20.60;18.48;;;15.30;99.90;;;;;;5010740;28;20041;-62
2023/09/27 01:24:40;;;;;;;20.75;18.42;;;15.40;99.90;;;;;;5010220;28;20052;-61
2023/09/27 01:27:09;;;;;;;20.67;18.23;;;15.30;99.90;;;;;;5010370;28;20081;-61
2023/09/27 01:29:36;;;;;;;21.20;19.08;;;15.30;99.90;;;;;;5010649;28;20049;-62
2023/09/27 01:32:02;;;;;;;20.33;17.85;;;15.30;99.90;;;;;;5010601;28;20043;-61
2023/09/27 01:34:29;;;;;;;20.30;18.23;;;15.30;99.90;;;;;;5009463;28;20056;-61
2023/09/27 01:36:55;;;;;;;21.08;18.95;;;15.20;99.90;;;;;;5010099;28;20049;-63
2023/09/27 01:39:24;;;;;;;21.35;19.10;;;15.20;99.90;;;;;;5009924;28;20049;-62
2023/09/27 01:41:50;;;;;;;20.23;18.05;;;15.20;99.90;;;;;;5010501;28;20046;-60
2023/09/27 01:44:18;;;;;;;21.58;19.27;;;15.10;99.90;;;;;;5009825;28;20515;-61
2023/09/27 01:46:44;;;;;;;20.65;18.35;;;15.20;99.90;;;;;;5010032;28;20060;-61
2023/09/27 01:49:10;;;;;;;20.20;17.23;;;15.20;99.90;;;;;;5010402;28;20402;-62
2023/09/27 01:51:36;;;;;;;20.38;18.20;;;15.10;99.90;;;;;;5010517;28;20050;-62
2023/09/27 01:54:03;;;;;;;21.55;19.30;;;15.10;99.90;;;;;;5009962;28;20046;-61
2023/09/27 01:56:29;;;;;;;21.23;18.95;;;15.10;99.90;;;;;;5009785;28;20046;-62
2023/09/27 01:58:55;;;;;;;21.42;19.33;;;15.10;99.90;;;;;;5010045;28;20054;-61
2023/09/27 02:01:22;;;;;;;21.92;18.95;;;15.00;99.90;;;;;;5010129;28;20054;-62
2023/09/27 02:03:48;;;;;;;20.65;18.60;;;15.00;99.90;;;;;;4992469;28;20068;-62
2023/09/27 02:06:14;;;;;;;21.17;19.00;;;15.00;99.90;;;;;;5010344;28;20064;-61
2023/09/27 02:08:42;;;;;;;21.10;18.95;;;15.00;99.90;;;;;;5010129;28;20073;-61
2023/09/27 02:11:08;;;;;;;21.65;19.38;;;15.00;99.90;;;;;;5010124;28;20084;-61
2023/09/27 02:13:34;;;;;;;21.38;19.10;;;15.00;99.90;;;;;;5009650;28;20038;-62
2023/09/27 02:16:00;;;;;;;20.77;18.67;;;15.00;99.90;;;;;;5010341;28;20042;-60
2023/09/27 02:18:27;;;;;;;19.60;16.73;;;15.00;99.90;;;;;;5009236;28;20441;-61
2023/09/27 02:20:53;;;;;;;20.83;18.70;;;14.90;99.90;;;;;;5010044;28;20063;-62
2023/09/27 02:23:19;;;;;;;21.63;19.42;;;15.00;99.90;;;;;;5009598;28;20092;-62
2023/09/27 02:25:56;;;;;;;22.23;19.63;;;14.90;99.90;;;;;;5009876;28;20489;-62
2023/09/27 02:28:22;;;;;;;21.95;19.75;;;14.90;99.90;;;;;;5009182;28;20100;-61
2023/09/27 02:30:48;;;;;;;20.85;18.73;;;15.00;99.90;;;;;;5008696;28;20050;-61
2023/09/27 02:33:16;;;;;;;21.08;18.63;;;14.90;99.90;;;;;;5009416;28;20037;-61
2023/09/27 02:35:42;;;;;;;21.70;19.42;;;14.90;99.90;;;;;;5010245;28;20148;-61
2023/09/27 02:38:09;;;;;;;20.70;18.45;;;14.90;99.90;;;;;;5009131;28;20064;-61
2023/09/27 02:40:36;;;;;;;21.08;18.98;;;14.80;99.90;;;;;;5009851;28;20057;-61
2023/09/27 02:43:02;;;;;;;21.38;18.83;;;14.80;99.90;;;;;;5009470;28;20104;-62
2023/09/27 02:45:28;;;;;;;20.80;18.63;;;14.80;99.90;;;;;;5009912;28;20073;-60
2023/09/27 02:47:55;;;;;;;21.33;19.15;;;14.70;99.90;;;;;;5013087;28;20137;-61
2023/09/27 02:50:21;;;;;;;22.80;19.42;;;14.70;99.90;;;;;;5013410;28;20057;-61
2023/09/27 02:52:47;;;;;;;21.60;18.67;;;14.80;99.90;;;;;;5013042;28;20828;-62
2023/09/27 02:55:13;;;;;;;21.25;18.98;;;14.70;99.90;;;;;;5013439;28;20042;-62
2023/09/27 02:57:47;;;;;;;19.25;17.33;;;14.70;99.90;;;;;;5012030;28;20455;-61
2023/09/27 03:00:14;;;;;;;21.75;19.42;;;14.60;99.90;;;;;;5013570;28;20168;-62
2023/09/27 03:02:41;;;;;;;20.85;18.65;;;14.60;99.90;;;;;;5012772;28;20066;-61
2023/09/27 03:05:09;;;;;;;20.27;18.20;;;14.60;99.90;;;;;;5013033;28;20050;-61
2023/09/27 03:07:35;;;;;;;19.95;17.85;;;14.60;99.90;;;;;;5012811;28;20056;-61
2023/09/27 03:10:08;;;;;;;21.10;18.27;;;14.60;99.90;;;;;;5013208;28;20535;-61
2023/09/27 03:12:34;;;;;;;18.85;16.88;;;14.60;99.90;;;;;;5012667;28;20383;-61
2023/09/27 03:15:01;;;;;;;20.60;18.42;;;14.50;99.90;;;;;;5012445;28;20363;-62
2023/09/27 03:17:27;;;;;;;20.30;18.15;;;14.60;99.90;;;;;;5012298;28;20156;-60
2023/09/27 03:19:53;;;;;;;20.08;17.50;;;14.50;99.90;;;;;;5012891;28;20052;-62
2023/09/27 03:22:19;;;;;;;21.25;18.98;;;14.50;99.90;;;;;;5012561;28;20050;-61
2023/09/27 03:24:46;;;;;;;21.52;19.08;;;14.50;99.90;;;;;;5011941;28;20050;-61
2023/09/27 03:27:12;;;;;;;21.10;18.90;;;14.50;99.90;;;;;;5013001;28;20049;-62
2023/09/27 03:29:39;;;;;;;22.60;19.98;;;14.40;99.90;;;;;;5012576;28;20427;-59
2023/09/27 03:32:06;;;;;;;22.55;18.27;;;14.40;99.90;;;;;;5012748;28;20477;-63
2023/09/27 03:34:32;;;;;;;21.02;18.90;;;14.40;99.90;;;;;;5012890;28;20045;-62
2023/09/27 03:36:58;;;;;;;20.95;18.60;;;14.40;99.90;;;;;;5012768;28;20060;-62
2023/09/27 03:39:25;;;;;;;22.23;20.02;;;14.40;99.90;;;;;;4995115;28;20111;-58
2023/09/27 03:41:51;;;;;;;23.15;19.40;;;14.30;99.90;;;;;;5012474;28;20420;-59
2023/09/27 03:44:17;;;;;;;22.17;19.88;;;14.30;99.90;;;;;;5012242;28;20481;-59
2023/09/27 03:46:43;;;;;;;22.77;20.48;;;14.20;99.90;;;;;;5012402;28;20081;-61
2023/09/27 03:49:12;;;;;;;20.58;18.48;;;14.30;99.90;;;;;;5011262;28;20056;-60
2023/09/27 03:51:40;;;;;;;22.75;18.95;;;14.30;99.90;;;;;;5012440;28;20406;-62
2023/09/27 03:54:07;;;;;;;21.30;19.00;;;14.20;99.90;;;;;;5012235;28;20140;-61
2023/09/27 03:56:33;;;;;;;22.67;19.50;;;14.30;99.90;;;;;;4994067;28;20518;-62
2023/09/27 03:59:00;;;;;;;21.13;18.83;;;14.30;99.90;;;;;;5012321;28;20060;-61
2023/09/27 04:01:26;;;;;;;22.10;19.80;;;14.30;99.90;;;;;;5011294;28;20050;-60
2023/09/27 04:03:52;;;;;;;21.15;19.05;;;14.30;99.90;;;;;;5018790;28;20125;-60
2023/09/27 04:06:20;;;;;;;20.20;18.10;;;14.20;99.90;;;;;;4994196;28;20054;-60
2023/09/27 04:08:46;;;;;;;19.10;16.48;;;14.20;99.90;;;;;;5012090;28;20627;-60
2023/09/27 04:11:13;;;;;;;20.70;18.52;;;14.20;99.90;;;;;;4994618;28;20046;-62
2023/09/27 04:13:39;;;;;;;22.50;18.65;;;14.20;99.90;;;;;;5011460;28;20061;-61
2023/09/27 04:16:06;;;;;;;21.25;18.48;;;14.10;99.90;;;;;;5011837;28;20057;-61
2023/09/27 04:18:33;;;;;;;21.60;19.35;;;14.20;99.90;;;;;;5011356;28;20061;-61
2023/09/27 04:21:10;;;;;;;21.58;19.33;;;14.20;99.90;;;;;;5011177;28;20050;-59
2023/09/27 04:23:41;;;;;;;21.85;19.65;;;14.10;99.90;;;;;;5011475;28;20050;-57
2023/09/27 04:26:09;;;;;;;22.95;20.48;;;14.00;99.90;;;;;;5010660;28;20145;-61
2023/09/27 04:28:36;;;;;;;20.52;18.50;;;14.10;99.90;;;;;;4994271;28;20046;-61
2023/09/27 04:31:03;;;;;;;21.48;19.27;;;14.10;99.90;;;;;;5011932;28;20129;-62
2023/09/27 04:33:29;;;;;;;20.58;18.48;;;14.00;99.90;;;;;;5010963;28;20053;-59
2023/09/27 04:35:55;;;;;;;20.70;18.63;;;14.10;99.90;;;;;;4994218;28;20058;-61
2023/09/27 04:38:22;;;;;;;21.70;19.48;;;14.10;99.90;;;;;;5010977;28;20133;-58
2023/09/27 04:40:48;;;;;;;22.10;19.70;;;14.00;99.90;;;;;;4994092;28;20061;-61
2023/09/27 04:43:15;;;;;;;23.73;21.23;;;14.00;99.90;;;;;;4993435;28;20050;-61
2023/09/27 04:45:42;;;;;;;23.88;20.63;;;14.00;99.90;;;;;;5010458;28;20046;-60
2023/09/27 04:48:08;;;;;;;22.77;20.38;;;13.90;99.90;;;;;;5011040;28;20057;-59
2023/09/27 04:50:34;;;;;;;23.23;20.65;;;13.90;99.90;;;;;;5011600;28;20115;-60
2023/09/27 04:53:00;;;;;;;22.33;19.92;;;14.00;99.90;;;;;;5011382;28;20057;-60
2023/09/27 04:55:27;;;;;;;23.02;20.63;;;14.00;99.90;;;;;;5011243;28;20045;-60
2023/09/27 04:57:55;;;;;;;21.55;19.45;;;13.90;99.90;;;;;;5009742;28;20045;-59
2023/09/27 05:00:22;;;;;;;23.75;21.25;;;14.00;99.90;;;;;;5011242;28;20046;-60
2023/09/27 05:02:49;;;;;;;21.00;18.90;;;13.90;99.90;;;;;;5010083;28;20058;-59
2023/09/27 05:05:16;;;;;;;21.77;19.48;;;13.90;99.90;;;;;;5010751;28;20108;-60
2023/09/27 05:07:43;;;;;;;24.70;20.38;;;13.80;99.90;;;;;;5008412;28;20114;-61
2023/09/27 05:10:09;;;;;;;23.60;21.17;;;13.80;99.90;;;;;;5008152;28;20156;-61
2023/09/27 05:12:36;;;;;;;24.73;21.50;;;13.90;99.90;;;;;;4989932;28;20053;-60
2023/09/27 05:15:03;;;;;;;23.95;21.23;;;13.90;99.90;;;;;;4990038;28;20042;-60
2023/09/27 05:17:30;;;;;;;25.88;21.60;;;13.80;99.90;;;;;;4974048;28;20144;-61
2023/09/27 05:19:56;;;;;;;24.48;21.88;;;13.80;99.90;;;;;;4991271;28;20065;-59
2023/09/27 05:22:24;;;;;;;24.70;21.75;;;13.70;99.90;;;;;;5009862;28;20068;-61
2023/09/27 05:24:50;;;;;;;22.77;20.42;;;13.70;99.90;;;;;;4976894;28;20054;-60
2023/09/27 05:27:16;;;;;;;24.48;21.75;;;13.80;99.90;;;;;;5010084;28;20050;-61
2023/09/27 05:29:42;;;;;;;24.33;21.83;;;13.80;99.90;;;;;;5008836;28;20046;-60
2023/09/27 05:32:09;;;;;;;25.60;22.17;;;13.90;99.90;;;;;;5010194;28;20052;-60
2023/09/27 05:34:35;;;;;;;24.58;21.52;;;13.80;99.90;;;;;;5010233;28;20053;-60
2023/09/27 05:37:01;;;;;;;25.55;21.58;;;13.80;99.90;;;;;;5009974;28;20045;-60
2023/09/27 05:39:28;;;;;;;23.77;21.35;;;13.80;99.90;;;;;;5009913;28;20184;-60
2023/09/27 05:41:54;;;;;;;23.23;20.75;;;13.80;99.90;;;;;;5009561;28;20474;-60
2023/09/27 05:44:20;;;;;;;23.17;20.67;;;13.80;99.90;;;;;;5008474;28;20112;-59
2023/09/27 05:46:47;;;;;;;23.92;21.52;;;13.90;99.90;;;;;;4992275;28;20061;-60
2023/09/27 05:49:16;;;;;;;23.98;21.45;;;13.80;99.90;;;;;;5009556;28;20049;-61
2023/09/27 05:51:43;;;;;;;23.35;20.08;;;13.80;99.90;;;;;;5008456;28;20454;-60
2023/09/27 05:54:10;;;;;;;24.10;21.52;;;13.80;99.90;;;;;;4992502;28;20061;-60
2023/09/27 05:56:39;;;;;;;23.55;20.95;;;13.80;99.90;;;;;;5009503;28;20068;-60
2023/09/27 05:59:08;;;;;;;24.05;21.55;;;13.80;99.90;;;;;;5009349;28;20136;-61
2023/09/27 06:01:35;;;;;;;24.08;21.60;;;13.80;99.90;;;;;;5009270;28;20225;-60
2023/09/27 06:04:02;;;;;;;24.15;21.60;;;13.80;99.90;;;;;;5009813;28;20053;-60
2023/09/27 06:06:29;;;;;;;24.05;21.48;;;13.80;99.90;;;;;;5009554;28;20050;-60
2023/09/27 06:08:55;;;;;;;24.73;22.13;;;13.80;99.90;;;;;;4989287;28;20104;-60
2023/09/27 06:11:23;;;;;;;25.95;22.90;;;13.80;99.90;;;;;;5009702;28;20057;-59
2023/09/27 06:13:49;;;;;;;26.27;23.35;;;13.80;99.90;;;;;;5007526;28;20049;-61
2023/09/27 06:16:19;;;;;;;28.13;24.73;;;13.90;99.90;;;;;;5007984;28;20049;-61
2023/09/27 06:18:45;;;;;;;29.45;24.92;;;13.80;99.90;;;;;;5009937;28;20137;-61
2023/09/27 06:21:15;;;;;;;27.35;24.30;;;13.80;99.90;;;;;;5006723;28;20063;-60
2023/09/27 06:23:42;;;;;;;27.42;23.83;;;13.90;99.90;;;;;;5009007;28;20049;-62
2023/09/27 06:26:09;;;;;;;29.98;24.77;;;13.80;99.90;;;;;;4976548;28;20079;-60
2023/09/27 06:28:38;;;;;;;30.52;26.02;;;13.90;99.90;;;;;;4989665;28;20526;-61
2023/09/27 06:31:06;;;;;;;36.60;30.00;;;14.00;99.90;;;;;;4987189;28;20069;-61
2023/09/27 06:33:39;;;;;;;42.45;32.38;;;14.10;99.90;;;;;;5009821;28;20371;-60
2023/09/27 06:36:08;;;;;;;44.17;36.03;;;14.00;99.90;;;;;;5011704;28;20050;-61
2023/09/27 06:38:35;;;;;;;45.17;36.20;;;14.10;99.90;;;;;;5011636;28;20061;-61
2023/09/27 06:41:01;;;;;;;41.22;32.22;;;14.10;99.90;;;;;;4993929;28;20049;-62
2023/09/27 06:43:29;;;;;;;42.60;34.00;;;14.30;99.90;;;;;;5011568;28;20057;-61
2023/09/27 06:45:55;;;;;;;36.58;27.95;;;14.40;99.90;;;;;;5011721;28;20129;-61
2023/09/27 06:48:23;;;;;;;32.05;28.35;;;14.60;99.90;;;;;;5011842;28;20049;-60
2023/09/27 06:50:50;;;;;;;34.10;29.13;;;14.70;99.90;;;;;;5011350;28;20054;-61
2023/09/27 06:53:17;;;;;;;33.10;28.80;;;14.80;99.90;;;;;;5010788;28;20099;-60
2023/09/27 06:55:44;;;;;;;31.13;27.48;;;15.00;99.90;;;;;;5011616;28;20042;-63
2023/09/27 06:58:11;;;;;;;30.05;26.20;;;15.10;99.90;;;;;;5011588;28;20045;-60
2023/09/27 07:00:43;;;;;;;32.30;27.30;;;15.30;99.90;;;;;;5011115;28;20053;-60
2023/09/27 07:03:09;;;;;;;29.02;25.67;;;15.30;99.90;;;;;;5010814;28;20435;-60
2023/09/27 07:05:36;;;;;;;28.48;25.40;;;15.30;99.90;;;;;;5011865;28;20054;-61
2023/09/27 07:08:03;;;;;;;28.33;25.42;;;15.40;99.90;;;;;;5011654;28;20105;-60
2023/09/27 07:10:29;;;;;;;29.70;25.42;;;15.40;99.90;;;;;;5011118;28;20061;-58
2023/09/27 07:12:55;;;;;;;27.17;24.27;;;15.50;99.90;;;;;;4993854;28;20060;-61
2023/09/27 07:15:22;;;;;;;30.45;25.90;;;15.50;99.90;;;;;;5011512;28;20053;-59
2023/09/27 07:17:48;;;;;;;27.10;24.23;;;15.40;99.90;;;;;;5011198;28;20054;-60
2023/09/27 07:20:27;;;;;;;27.73;24.73;;;15.50;99.90;;;;;;5011361;28;20097;-59
2023/09/27 07:22:54;;;;;;;27.23;24.30;;;15.50;99.90;;;;;;4993623;28;20102;-60
2023/09/27 07:25:21;;;;;;;28.05;23.45;;;15.60;99.90;;;;;;5011455;28;20115;-57
2023/09/27 07:27:48;;;;;;;26.35;23.58;;;15.60;99.90;;;;;;5011476;28;20077;-60
2023/09/27 07:30:18;;;;;;;23.52;20.85;;;15.50;99.90;;;;;;5010764;28;20395;-62
2023/09/27 07:32:45;;;;;;;25.10;22.45;;;15.50;99.90;;;;;;5013715;28;20103;-61
2023/09/27 07:35:14;;;;;;;25.50;22.90;;;15.60;99.90;;;;;;5014986;28;20056;-57
2023/09/27 07:37:47;;;;;;;24.63;22.10;;;15.60;99.90;;;;;;5014554;28;20094;-60
2023/09/27 07:40:14;;;;;;;25.17;22.58;;;15.70;99.90;;;;;;5014861;28;20442;-59
2023/09/27 07:42:42;;;;;;;26.35;23.58;;;15.80;99.90;;;;;;5014544;28;20050;-61
2023/09/27 07:45:21;;;;;;;26.90;24.00;;;15.90;99.90;;;;;;4981160;28;20054;-61
2023/09/27 07:47:52;;;;;;;25.33;22.63;;;15.80;99.90;;;;;;5014631;28;20104;-61
2023/09/27 07:50:19;;;;;;;23.20;20.70;;;15.80;99.90;;;;;;5014371;28;20347;-62
2023/09/27 07:52:47;;;;;;;25.15;22.60;;;15.90;99.90;;;;;;5014264;28;20046;-60
2023/09/27 07:55:14;;;;;;;25.65;23.00;;;15.90;99.90;;;;;;5014722;28;20046;-60
2023/09/27 07:57:43;;;;;;;24.13;21.52;;;16.00;99.90;;;;;;4996334;28;20046;-62
2023/09/27 08:00:15;;;;;;;26.77;24.02;;;16.20;99.90;;;;;;4994384;28;20056;-60
2023/09/27 08:02:43;;;;;;;25.10;22.05;;;16.40;99.90;;;;;;5001056;28;20056;-62
2023/09/27 08:05:09;;;;;;;25.08;22.10;;;16.70;99.90;;;;;;5013952;28;20148;-61
2023/09/27 08:07:37;;;;;;;24.77;22.27;;;16.90;99.90;;;;;;5014044;28;20172;-58
2023/09/27 08:10:04;;;;;;;24.08;21.73;;;17.10;99.90;;;;;;4995919;28;20050;-61
2023/09/27 08:12:35;;;;;;;24.15;21.38;;;17.30;99.90;;;;;;5013979;28;20049;-60
2023/09/27 08:15:03;;;;;;;23.40;21.00;;;17.40;99.90;;;;;;5013494;28;20359;-58
2023/09/27 08:17:30;;;;;;;24.40;21.90;;;17.60;99.90;;;;;;5013922;28;20053;-62
2023/09/27 08:19:56;;;;;;;24.48;21.88;;;17.70;99.90;;;;;;5013170;28;20054;-61
2023/09/27 08:22:22;;;;;;;24.48;21.00;;;17.80;99.90;;;;;;5013255;28;20370;-58
2023/09/27 08:24:49;;;;;;;25.52;22.70;;;17.90;99.90;;;;;;5013565;28;20517;-59
2023/09/27 08:27:16;;;;;;;26.55;22.58;;;18.00;99.90;;;;;;5014139;28;20049;-60
2023/09/27 08:29:43;;;;;;;29.65;22.33;;;18.10;99.90;;;;;;5013368;28;20061;-58
2023/09/27 08:32:10;;;;;;;24.40;21.58;;;18.30;99.90;;;;;;4996032;28;20426;-60
2023/09/27 08:34:36;;;;;;;24.85;22.33;;;18.40;99.90;;;;;;5013237;28;20058;-60
2023/09/27 08:37:03;;;;;;;25.45;22.75;;;18.60;99.90;;;;;;5013678;28;20057;-60
2023/09/27 08:39:30;;;;;;;25.13;22.45;;;18.70;99.90;;;;;;5012835;28;20182;-59
2023/09/27 08:41:59;;;;;;;22.90;20.48;;;18.60;99.90;;;;;;5013462;28;20046;-59
2023/09/27 08:44:25;;;;;;;24.80;21.83;;;18.50;99.90;;;;;;5011719;28;20050;-58
2023/09/27 08:46:56;;;;;;;23.85;21.35;;;18.70;99.90;;;;;;5013129;28;20112;-60
2023/09/27 08:49:24;;;;;;;23.60;21.02;;;18.80;99.90;;;;;;5013037;28;20621;-58
2023/09/27 08:51:52;;;;;;;24.30;21.75;;;18.80;99.90;;;;;;5012979;28;20061;-60
2023/09/27 08:54:21;;;;;;;25.17;22.33;;;18.90;99.90;;;;;;5012509;28;20502;-59
2023/09/27 08:56:50;;;;;;;22.40;20.13;;;19.00;99.90;;;;;;5012595;28;20045;-59
2023/09/27 08:59:21;;;;;;;27.98;21.27;;;19.20;99.90;;;;;;5012339;28;20054;-58
2023/09/27 09:01:51;;;;;;;39.55;23.23;;;19.30;99.90;;;;;;5012731;28;20441;-59
2023/09/27 09:04:18;;;;;;;29.38;20.73;;;19.40;99.90;;;;;;5012226;28;20336;-59
2023/09/27 09:06:45;;;;;;;34.80;22.23;;;19.60;99.90;;;;;;5012976;28;20067;-60
2023/09/27 09:09:11;;;;;;;29.55;21.85;;;19.50;99.90;;;;;;5012721;28;20050;-60
2023/09/27 09:11:48;;;;;;;22.52;19.30;;;19.60;99.90;;;;;;5012033;28;20106;-57
2023/09/27 09:14:21;;;;;;;26.77;18.77;;;19.70;99.90;;;;;;5010951;28;20059;-61
2023/09/27 09:16:52;;;;;;;18.33;16.40;;;19.90;99.90;;;;;;5012831;28;20133;-60
2023/09/27 09:19:25;;;;;;;17.83;15.48;;;19.90;99.90;;;;;;5012588;28;20053;-58
2023/09/27 09:22:03;;;;;;;20.00;17.05;;;20.30;99.90;;;;;;5012706;28;20054;-59
2023/09/27 09:24:32;;;;;;;18.50;15.55;;;20.50;99.90;;;;;;5012709;28;20116;-59
2023/09/27 09:27:16;;;;;;;18.05;16.17;;;20.70;99.90;;;;;;5012810;28;20455;-61
2023/09/27 09:29:47;;;;;;;20.00;15.77;;;20.70;99.90;;;;;;4995035;28;20062;-59
2023/09/27 09:32:18;;;;;;;16.75;14.77;;;20.80;99.90;;;;;;5012660;28;20068;-60
2023/09/27 09:34:53;;;;;;;17.98;14.82;;;20.80;99.90;;;;;;5012109;28;20459;-60
2023/09/27 09:37:29;;;;;;;19.33;15.25;;;20.80;99.90;;;;;;5012563;28;20061;-60
2023/09/27 09:40:14;;;;;;;15.75;13.98;;;20.90;99.90;;;;;;5011919;28;20446;-60
2023/09/27 09:42:50;;;;;;;18.13;14.00;;;21.00;99.90;;;;;;5012400;28;20422;-61
2023/09/27 09:45:17;;;;;;;18.35;15.95;;;21.10;99.90;;;;;;4992800;28;20050;-60
2023/09/27 09:47:44;;;;;;;15.98;14.27;;;21.20;99.90;;;;;;4992771;28;20046;-61
2023/09/27 09:50:18;;;;;;;17.00;15.18;;;21.30;99.90;;;;;;4992373;28;20062;-60
2023/09/27 09:52:57;;;;;;;18.65;15.77;;;21.40;99.90;;;;;;4975679;28;20043;-59
2023/09/27 09:55:25;;;;;;;16.42;14.68;;;21.40;99.90;;;;;;4992018;28;20437;-59
2023/09/27 09:57:57;;;;;;;18.35;16.17;;;21.40;99.90;;;;;;4992359;28;20061;-60
2023/09/27 10:00:30;;;;;;;19.50;17.50;;;21.40;99.90;;;;;;4992387;28;20057;-59
2023/09/27 10:03:04;;;;;;;17.67;15.88;;;21.40;99.90;;;;;;4993888;28;20061;-60
2023/09/27 10:05:37;;;;;;;19.77;17.65;;;21.40;99.90;;;;;;5012119;28;20053;-60
2023/09/27 10:08:07;;;;;;;19.88;17.10;;;21.50;99.90;;;;;;5012284;28;20183;-61
2023/09/27 10:10:35;;;;;;;18.15;16.33;;;21.50;99.90;;;;;;4994471;28;20057;-60
2023/09/27 10:13:08;;;;;;;21.90;16.45;;;21.70;99.90;;;;;;5011343;28;20046;-60
2023/09/27 10:15:35;;;;;;;19.08;16.25;;;21.60;99.90;;;;;;5011870;28;20053;-60
2023/09/27 10:18:21;;;;;;;19.08;17.08;;;21.60;99.90;;;;;;5010897;28;20115;-60
2023/09/27 10:21:05;;;;;;;18.25;16.45;;;21.70;99.90;;;;;;5009339;28;20185;-61
2023/09/27 10:23:35;;;;;;;18.33;16.50;;;21.80;99.90;;;;;;5010947;28;20054;-61
2023/09/27 10:26:22;;;;;;;19.92;16.15;;;21.80;99.90;;;;;;5011763;28;20053;-60
2023/09/27 10:29:03;;;;;;;18.33;15.30;;;21.80;99.90;;;;;;5010681;28;20406;-61
2023/09/27 10:31:31;;;;;;;16.23;14.52;;;21.90;99.90;;;;;;5011503;28;20053;-60
2023/09/27 10:33:57;;;;;;;19.08;14.80;;;22.10;99.90;;;;;;5010953;28;20498;-61
2023/09/27 10:36:23;;;;;;;14.02;12.57;;;22.20;99.90;;;;;;5011326;28;20045;-62
2023/09/27 10:38:50;;;;;;;16.15;13.38;;;22.20;99.90;;;;;;5009590;28;20073;-63
2023/09/27 10:41:38;;;;;;;17.70;14.98;;;22.30;99.90;;;;;;5011083;28;20045;-62
2023/09/27 10:44:04;;;;;;;18.88;15.95;;;22.20;99.90;;;;;;5010962;28;20076;-62
2023/09/27 10:46:49;;;;;;;19.20;15.70;;;22.30;99.90;;;;;;5011244;28;20471;-61
2023/09/27 10:49:22;;;;;;;16.95;15.13;;;22.40;99.90;;;;;;5010762;28;20355;-62
2023/09/27 10:51:48;;;;;;;18.27;16.35;;;22.50;99.90;;;;;;5011382;28;20144;-61
2023/09/27 10:54:15;;;;;;;18.02;16.20;;;22.40;99.90;;;;;;5011448;28;20090;-59
2023/09/27 10:56:45;;;;;;;18.67;15.68;;;22.40;99.90;;;;;;5011571;28;20046;-61
2023/09/27 10:59:13;;;;;;;18.88;16.35;;;22.40;99.90;;;;;;5011054;28;20152;-60
2023/09/27 11:01:44;;;;;;;17.20;14.88;;;22.40;99.90;;;;;;5010926;28;20155;-61
2023/09/27 11:04:12;;;;;;;17.15;15.05;;;22.40;99.90;;;;;;5011452;28;20482;-61
2023/09/27 11:06:38;;;;;;;16.60;14.13;;;22.30;99.90;;;;;;5012542;28;20046;-61
2023/09/27 11:09:12;;;;;;;15.68;14.07;;;22.40;99.90;;;;;;5014587;28;20054;-60
2023/09/27 11:11:48;;;;;;;16.55;14.82;;;22.20;99.90;;;;;;5012417;28;20042;-60
2023/09/27 11:14:27;;;;;;;17.38;15.57;;;22.40;99.90;;;;;;5014295;28;20054;-60
2023/09/27 11:16:53;;;;;;;17.55;14.40;;;22.50;99.90;;;;;;5014611;28;20057;-59
2023/09/27 11:19:29;;;;;;;17.40;13.48;;;22.60;99.90;;;;;;5013650;28;20606;-61
2023/09/27 11:21:56;;;;;;;16.83;15.20;;;22.70;99.90;;;;;;5014356;28;20057;-60
2023/09/27 11:24:23;;;;;;;16.33;13.73;;;22.80;99.90;;;;;;5014182;28;20058;-60
2023/09/27 11:26:49;;;;;;;17.92;15.30;;;22.80;99.90;;;;;;4997693;28;20137;-59
2023/09/27 11:29:22;;;;;;;16.98;15.18;;;22.80;99.90;;;;;;5013948;28;20054;-62
2023/09/27 11:31:56;;;;;;;17.40;15.32;;;22.80;99.90;;;;;;5014918;28;20064;-60
2023/09/27 11:34:23;;;;;;;17.85;15.80;;;22.90;99.90;;;;;;5014287;28;20455;-60
2023/09/27 11:36:51;;;;;;;17.70;15.90;;;22.80;99.90;;;;;;5014464;28;20463;-59
2023/09/27 11:39:28;;;;;;;16.50;14.40;;;22.70;99.90;;;;;;5013914;28;20050;-60
2023/09/27 11:41:59;;;;;;;17.40;13.63;;;22.60;99.90;;;;;;5014383;28;20351;-61
2023/09/27 11:44:26;;;;;;;15.57;13.60;;;22.60;99.90;;;;;;5014363;28;20374;-61
2023/09/27 11:47:05;;;;;;;17.73;14.85;;;22.60;99.90;;;;;;5014933;28;20045;-60
2023/09/27 11:49:32;;;;;;;19.23;15.18;;;22.60;99.90;;;;;;5013272;28;20067;-62
2023/09/27 11:51:59;;;;;;;16.10;13.40;;;22.70;99.90;;;;;;5014696;28;20049;-61
2023/09/27 11:54:26;;;;;;;16.80;13.63;;;22.70;99.90;;;;;;5014147;28;20355;-61
2023/09/27 11:56:53;;;;;;;16.83;13.95;;;22.70;99.90;;;;;;5014568;28;20046;-60
2023/09/27 11:59:20;;;;;;;15.43;12.90;;;22.70;99.90;;;;;;5014217;28;20482;-61
2023/09/27 12:01:46;;;;;;;15.70;14.10;;;22.80;99.90;;;;;;5014305;28;20045;-62
2023/09/27 12:04:13;;;;;;;14.68;12.77;;;22.90;99.90;;;;;;5014210;28;20046;-60
2023/09/27 12:06:39;;;;;;;18.05;14.07;;;22.90;99.90;;;;;;4996669;28;20383;-61
2023/09/27 12:09:05;;;;;;;17.00;14.75;;;22.90;99.90;;;;;;5013769;28;20604;-60
2023/09/27 12:11:32;;;;;;;17.02;15.27;;;22.90;99.90;;;;;;4996398;28;20056;-61
2023/09/27 12:13:58;;;;;;;16.27;14.23;;;23.00;99.90;;;;;;5013512;28;20046;-61
2023/09/27 12:16:26;;;;;;;16.10;13.88;;;23.20;99.90;;;;;;5013850;28;20046;-61
2023/09/27 12:18:52;;;;;;;14.68;13.20;;;23.40;99.90;;;;;;5013495;28;20046;-60
2023/09/27 12:21:18;;;;;;;15.13;13.57;;;23.50;99.90;;;;;;5013983;28;20054;-62
2023/09/27 12:23:44;;;;;;;14.30;12.60;;;23.50;99.90;;;;;;5013365;28;20045;-60
2023/09/27 12:26:12;;;;;;;14.50;11.60;;;23.60;99.90;;;;;;5013770;28;20462;-60
2023/09/27 12:28:38;;;;;;;13.80;11.50;;;23.70;99.90;;;;;;5013400;28;20056;-61
2023/09/27 12:31:06;;;;;;;13.77;11.63;;;23.80;99.90;;;;;;5013630;28;20057;-61
2023/09/27 12:33:34;;;;;;;14.63;11.52;;;24.00;99.90;;;;;;5013027;28;20053;-61